sensor_id;sensor_type;location;lat;lon;timestamp;P1;durP1;ratioP1;P2;durP2;ratioP2
76259;SDS011;65076;52.362;6.588;2022-12-26T00:01:21;0.00;;;0.00;;
76259;SDS011;65076;52.362;6.588;2022-12-26T00:03:53;0.00;;;0.00;;
76259;SDS011;65076;52.362;6.588;2022-12-26T00:06:23;0.43;;;0.43;;
76259;SDS011;65076;52.362;6.588;2022-12-26T00:08:54;0.10;;;0.10;;
76259;SDS011;65076;52.362;6.588;2022-12-26T00:11:24;0.82;;;0.82;;
76259;SDS011;65076;52.362;6.588;2022-12-26T00:13:53;0.00;;;0.00;;
76259;SDS011;65076;52.362;6.588;2022-12-26T00:16:22;0.00;;;0.00;;
76259;SDS011;65076;52.362;6.588;2022-12-26T00:18:51;0.73;;;0.73;;
76259;SDS011;65076;52.362;6.588;2022-12-26T00:21:21;0.00;;;0.00;;
76259;SDS011;65076;52.362;6.588;2022-12-26T00:23:52;0.00;;;0.00;;
76259;SDS011;65076;52.362;6.588;2022-12-26T00:28:52;0.00;;;0.00;;
76259;SDS011;65076;52.362;6.588;2022-12-26T00:31:21;0.90;;;0.90;;
76259;SDS011;65076;52.362;6.588;2022-12-26T00:33:53;0.00;;;0.00;;
76259;SDS011;65076;52.362;6.588;2022-12-26T00:36:22;0.10;;;0.10;;
76259;SDS011;65076;52.362;6.588;2022-12-26T00:38:55;0.00;;;0.00;;
76259;SDS011;65076;52.362;6.588;2022-12-26T00:41:24;0.00;;;0.00;;
76259;SDS011;65076;52.362;6.588;2022-12-26T00:43:53;5.15;;;2.38;;
76259;SDS011;65076;52.362;6.588;2022-12-26T00:46:21;0.00;;;0.00;;
76259;SDS011;65076;52.362;6.588;2022-12-26T00:48:50;0.52;;;0.52;;
76259;SDS011;65076;52.362;6.588;2022-12-26T00:51:19;0.00;;;0.00;;
76259;SDS011;65076;52.362;6.588;2022-12-26T00:53:48;0.00;;;0.00;;
76259;SDS011;65076;52.362;6.588;2022-12-26T00:56:16;0.00;;;0.00;;
76259;SDS011;65076;52.362;6.588;2022-12-26T00:58:44;0.00;;;0.00;;
76259;SDS011;65076;52.362;6.588;2022-12-26T01:01:13;0.00;;;0.00;;
76259;SDS011;65076;52.362;6.588;2022-12-26T01:03:44;0.00;;;0.00;;
76259;SDS011;65076;52.362;6.588;2022-12-26T01:06:13;0.10;;;0.10;;
76259;SDS011;65076;52.362;6.588;2022-12-26T01:08:43;0.10;;;0.10;;
76259;SDS011;65076;52.362;6.588;2022-12-26T01:11:13;0.00;;;0.00;;
76259;SDS011;65076;52.362;6.588;2022-12-26T01:14:04;0.13;;;0.13;;
76259;SDS011;65076;52.362;6.588;2022-12-26T01:19:03;0.00;;;0.00;;
76259;SDS011;65076;52.362;6.588;2022-12-26T01:21:31;0.10;;;0.10;;
76259;SDS011;65076;52.362;6.588;2022-12-26T01:24:01;0.00;;;0.00;;
76259;SDS011;65076;52.362;6.588;2022-12-26T01:26:30;2.30;;;1.00;;
76259;SDS011;65076;52.362;6.588;2022-12-26T01:28:58;0.00;;;0.00;;
76259;SDS011;65076;52.362;6.588;2022-12-26T01:31:25;3.50;;;1.20;;
76259;SDS011;65076;52.362;6.588;2022-12-26T01:33:53;0.00;;;0.00;;
76259;SDS011;65076;52.362;6.588;2022-12-26T01:36:21;0.00;;;0.00;;
76259;SDS011;65076;52.362;6.588;2022-12-26T01:38:49;0.38;;;0.38;;
76259;SDS011;65076;52.362;6.588;2022-12-26T01:41:18;0.35;;;0.35;;
76259;SDS011;65076;52.362;6.588;2022-12-26T01:43:51;0.00;;;0.00;;
76259;SDS011;65076;52.362;6.588;2022-12-26T01:46:24;0.00;;;0.00;;
76259;SDS011;65076;52.362;6.588;2022-12-26T01:48:59;0.00;;;0.00;;
76259;SDS011;65076;52.362;6.588;2022-12-26T01:51:35;0.00;;;0.00;;
76259;SDS011;65076;52.362;6.588;2022-12-26T01:54:08;0.00;;;0.00;;
76259;SDS011;65076;52.362;6.588;2022-12-26T01:57:00;0.00;;;0.00;;
76259;SDS011;65076;52.362;6.588;2022-12-26T01:59:37;0.85;;;0.85;;
76259;SDS011;65076;52.362;6.588;2022-12-26T02:02:08;0.00;;;0.00;;
76259;SDS011;65076;52.362;6.588;2022-12-26T02:04:37;0.85;;;0.85;;
76259;SDS011;65076;52.362;6.588;2022-12-26T02:07:27;0.00;;;0.00;;
76259;SDS011;65076;52.362;6.588;2022-12-26T02:09:55;0.40;;;0.40;;
76259;SDS011;65076;52.362;6.588;2022-12-26T02:12:26;0.00;;;0.00;;
76259;SDS011;65076;52.362;6.588;2022-12-26T02:15:03;0.80;;;0.80;;
76259;SDS011;65076;52.362;6.588;2022-12-26T02:17:35;0.00;;;0.00;;
76259;SDS011;65076;52.362;6.588;2022-12-26T02:20:07;5.13;;;3.00;;
76259;SDS011;65076;52.362;6.588;2022-12-26T02:26:09;0.43;;;0.43;;
76259;SDS011;65076;52.362;6.588;2022-12-26T02:29:12;1.20;;;1.20;;
76259;SDS011;65076;52.362;6.588;2022-12-26T02:32:34;0.00;;;0.00;;
76259;SDS011;65076;52.362;6.588;2022-12-26T02:35:29;0.00;;;0.00;;
76259;SDS011;65076;52.362;6.588;2022-12-26T02:38:18;0.00;;;0.00;;
76259;SDS011;65076;52.362;6.588;2022-12-26T02:41:00;0.00;;;0.00;;
76259;SDS011;65076;52.362;6.588;2022-12-26T02:43:47;0.00;;;0.00;;
76259;SDS011;65076;52.362;6.588;2022-12-26T02:46:49;0.00;;;0.00;;
76259;SDS011;65076;52.362;6.588;2022-12-26T02:49:36;0.00;;;0.00;;
76259;SDS011;65076;52.362;6.588;2022-12-26T02:52:46;0.00;;;0.00;;
76259;SDS011;65076;52.362;6.588;2022-12-26T02:55:48;0.00;;;0.00;;
76259;SDS011;65076;52.362;6.588;2022-12-26T02:58:46;1.33;;;1.33;;
76259;SDS011;65076;52.362;6.588;2022-12-26T03:01:43;0.00;;;0.00;;
76259;SDS011;65076;52.362;6.588;2022-12-26T03:04:35;0.75;;;0.75;;
76259;SDS011;65076;52.362;6.588;2022-12-26T03:07:27;0.00;;;0.00;;
76259;SDS011;65076;52.362;6.588;2022-12-26T03:10:20;0.00;;;0.00;;
76259;SDS011;65076;52.362;6.588;2022-12-26T03:13:13;0.30;;;0.30;;
76259;SDS011;65076;52.362;6.588;2022-12-26T03:18:36;0.00;;;0.00;;
76259;SDS011;65076;52.362;6.588;2022-12-26T03:21:27;0.00;;;0.00;;
76259;SDS011;65076;52.362;6.588;2022-12-26T03:24:01;0.00;;;0.00;;
76259;SDS011;65076;52.362;6.588;2022-12-26T03:26:31;0.52;;;0.52;;
76259;SDS011;65076;52.362;6.588;2022-12-26T03:29:08;0.10;;;0.10;;
76259;SDS011;65076;52.362;6.588;2022-12-26T03:31:58;0.00;;;0.00;;
76259;SDS011;65076;52.362;6.588;2022-12-26T03:34:28;0.30;;;0.30;;
76259;SDS011;65076;52.362;6.588;2022-12-26T03:37:00;0.00;;;0.00;;
76259;SDS011;65076;52.362;6.588;2022-12-26T03:40:19;0.10;;;0.10;;
76259;SDS011;65076;52.362;6.588;2022-12-26T03:43:29;0.00;;;0.00;;
76259;SDS011;65076;52.362;6.588;2022-12-26T03:46:39;0.00;;;0.00;;
76259;SDS011;65076;52.362;6.588;2022-12-26T03:49:44;0.00;;;0.00;;
76259;SDS011;65076;52.362;6.588;2022-12-26T03:52:39;1.65;;;1.17;;
76259;SDS011;65076;52.362;6.588;2022-12-26T03:55:39;0.15;;;0.15;;
76259;SDS011;65076;52.362;6.588;2022-12-26T03:58:40;0.68;;;0.25;;
76259;SDS011;65076;52.362;6.588;2022-12-26T04:01:34;0.00;;;0.00;;
76259;SDS011;65076;52.362;6.588;2022-12-26T04:04:23;0.00;;;0.00;;
76259;SDS011;65076;52.362;6.588;2022-12-26T04:07:15;0.25;;;0.25;;
76259;SDS011;65076;52.362;6.588;2022-12-26T04:10:26;0.13;;;0.13;;
76259;SDS011;65076;52.362;6.588;2022-12-26T04:13:19;0.10;;;0.10;;
76259;SDS011;65076;52.362;6.588;2022-12-26T04:16:13;0.00;;;0.00;;
76259;SDS011;65076;52.362;6.588;2022-12-26T04:19:05;0.40;;;0.40;;
76259;SDS011;65076;52.362;6.588;2022-12-26T04:21:53;0.40;;;0.40;;
76259;SDS011;65076;52.362;6.588;2022-12-26T04:24:52;0.20;;;0.20;;
76259;SDS011;65076;52.362;6.588;2022-12-26T04:28:07;0.57;;;0.57;;
76259;SDS011;65076;52.362;6.588;2022-12-26T04:30:55;0.00;;;0.00;;
76259;SDS011;65076;52.362;6.588;2022-12-26T04:33:50;0.00;;;0.00;;
76259;SDS011;65076;52.362;6.588;2022-12-26T04:36:44;0.20;;;0.20;;
76259;SDS011;65076;52.362;6.588;2022-12-26T04:39:36;0.35;;;0.35;;
76259;SDS011;65076;52.362;6.588;2022-12-26T04:42:27;0.00;;;0.00;;
76259;SDS011;65076;52.362;6.588;2022-12-26T04:45:17;0.00;;;0.00;;
76259;SDS011;65076;52.362;6.588;2022-12-26T04:47:48;0.32;;;0.32;;
76259;SDS011;65076;52.362;6.588;2022-12-26T04:50:30;0.00;;;0.00;;
76259;SDS011;65076;52.362;6.588;2022-12-26T04:52:58;0.70;;;0.70;;
76259;SDS011;65076;52.362;6.588;2022-12-26T04:55:27;0.00;;;0.00;;
76259;SDS011;65076;52.362;6.588;2022-12-26T04:57:57;0.08;;;0.08;;
76259;SDS011;65076;52.362;6.588;2022-12-26T05:00:27;0.00;;;0.00;;
76259;SDS011;65076;52.362;6.588;2022-12-26T05:02:55;0.40;;;0.40;;
76259;SDS011;65076;52.362;6.588;2022-12-26T05:05:45;0.77;;;0.77;;
76259;SDS011;65076;52.362;6.588;2022-12-26T05:08:37;0.00;;;0.00;;
76259;SDS011;65076;52.362;6.588;2022-12-26T05:11:26;0.00;;;0.00;;
76259;SDS011;65076;52.362;6.588;2022-12-26T05:13:56;0.00;;;0.00;;
76259;SDS011;65076;52.362;6.588;2022-12-26T05:16:27;0.00;;;0.00;;
76259;SDS011;65076;52.362;6.588;2022-12-26T05:19:13;0.00;;;0.00;;
76259;SDS011;65076;52.362;6.588;2022-12-26T05:22:01;0.00;;;0.00;;
76259;SDS011;65076;52.362;6.588;2022-12-26T05:24:49;0.00;;;0.00;;
76259;SDS011;65076;52.362;6.588;2022-12-26T05:27:36;0.00;;;0.00;;
76259;SDS011;65076;52.362;6.588;2022-12-26T05:30:24;0.00;;;0.00;;
76259;SDS011;65076;52.362;6.588;2022-12-26T05:32:53;0.28;;;0.28;;
76259;SDS011;65076;52.362;6.588;2022-12-26T05:35:38;0.45;;;0.45;;
76259;SDS011;65076;52.362;6.588;2022-12-26T05:38:07;0.00;;;0.00;;
76259;SDS011;65076;52.362;6.588;2022-12-26T05:40:36;0.28;;;0.28;;
76259;SDS011;65076;52.362;6.588;2022-12-26T05:43:04;0.00;;;0.00;;
76259;SDS011;65076;52.362;6.588;2022-12-26T05:45:32;0.00;;;0.00;;
76259;SDS011;65076;52.362;6.588;2022-12-26T05:48:01;0.00;;;0.00;;
76259;SDS011;65076;52.362;6.588;2022-12-26T05:50:29;0.00;;;0.00;;
76259;SDS011;65076;52.362;6.588;2022-12-26T05:52:58;0.10;;;0.10;;
76259;SDS011;65076;52.362;6.588;2022-12-26T05:55:26;0.00;;;0.00;;
76259;SDS011;65076;52.362;6.588;2022-12-26T05:57:53;0.00;;;0.00;;
76259;SDS011;65076;52.362;6.588;2022-12-26T06:00:21;0.00;;;0.00;;
76259;SDS011;65076;52.362;6.588;2022-12-26T06:02:49;0.00;;;0.00;;
76259;SDS011;65076;52.362;6.588;2022-12-26T06:05:19;0.00;;;0.00;;
76259;SDS011;65076;52.362;6.588;2022-12-26T06:07:46;0.00;;;0.00;;
76259;SDS011;65076;52.362;6.588;2022-12-26T06:10:14;0.00;;;0.00;;
76259;SDS011;65076;52.362;6.588;2022-12-26T06:12:43;0.43;;;0.43;;
76259;SDS011;65076;52.362;6.588;2022-12-26T06:15:10;0.00;;;0.00;;
76259;SDS011;65076;52.362;6.588;2022-12-26T06:17:38;0.00;;;0.00;;
76259;SDS011;65076;52.362;6.588;2022-12-26T06:20:07;0.43;;;0.43;;
76259;SDS011;65076;52.362;6.588;2022-12-26T06:22:38;0.00;;;0.00;;
76259;SDS011;65076;52.362;6.588;2022-12-26T06:25:06;0.00;;;0.00;;
76259;SDS011;65076;52.362;6.588;2022-12-26T06:27:35;0.73;;;0.73;;
76259;SDS011;65076;52.362;6.588;2022-12-26T06:30:03;0.00;;;0.00;;
76259;SDS011;65076;52.362;6.588;2022-12-26T06:32:32;0.00;;;0.00;;
76259;SDS011;65076;52.362;6.588;2022-12-26T06:35:00;0.22;;;0.22;;
76259;SDS011;65076;52.362;6.588;2022-12-26T06:37:28;0.00;;;0.00;;
76259;SDS011;65076;52.362;6.588;2022-12-26T06:39:57;0.00;;;0.00;;
76259;SDS011;65076;52.362;6.588;2022-12-26T06:42:25;0.38;;;0.38;;
76259;SDS011;65076;52.362;6.588;2022-12-26T06:44:54;0.00;;;0.00;;
76259;SDS011;65076;52.362;6.588;2022-12-26T06:47:22;0.10;;;0.10;;
76259;SDS011;65076;52.362;6.588;2022-12-26T06:49:50;0.00;;;0.00;;
76259;SDS011;65076;52.362;6.588;2022-12-26T06:52:18;0.00;;;0.00;;
76259;SDS011;65076;52.362;6.588;2022-12-26T06:54:46;0.00;;;0.00;;
76259;SDS011;65076;52.362;6.588;2022-12-26T06:57:15;0.25;;;0.25;;
76259;SDS011;65076;52.362;6.588;2022-12-26T06:59:43;0.00;;;0.00;;
76259;SDS011;65076;52.362;6.588;2022-12-26T07:02:10;0.00;;;0.00;;
76259;SDS011;65076;52.362;6.588;2022-12-26T07:04:39;0.00;;;0.00;;
76259;SDS011;65076;52.362;6.588;2022-12-26T07:07:07;0.00;;;0.00;;
76259;SDS011;65076;52.362;6.588;2022-12-26T07:09:35;0.00;;;0.00;;
76259;SDS011;65076;52.362;6.588;2022-12-26T07:12:03;1.40;;;1.30;;
76259;SDS011;65076;52.362;6.588;2022-12-26T07:14:34;0.40;;;0.40;;
76259;SDS011;65076;52.362;6.588;2022-12-26T07:17:02;0.08;;;0.08;;
76259;SDS011;65076;52.362;6.588;2022-12-26T07:19:30;0.00;;;0.00;;
76259;SDS011;65076;52.362;6.588;2022-12-26T07:21:58;3.33;;;2.50;;
76259;SDS011;65076;52.362;6.588;2022-12-26T07:24:26;0.10;;;0.10;;
76259;SDS011;65076;52.362;6.588;2022-12-26T07:26:54;0.00;;;0.00;;
76259;SDS011;65076;52.362;6.588;2022-12-26T07:29:22;0.00;;;0.00;;
76259;SDS011;65076;52.362;6.588;2022-12-26T07:31:51;0.00;;;0.00;;
76259;SDS011;65076;52.362;6.588;2022-12-26T07:34:19;0.00;;;0.00;;
76259;SDS011;65076;52.362;6.588;2022-12-26T07:36:54;0.00;;;0.00;;
76259;SDS011;65076;52.362;6.588;2022-12-26T07:39:22;0.00;;;0.00;;
76259;SDS011;65076;52.362;6.588;2022-12-26T07:41:50;0.10;;;0.10;;
76259;SDS011;65076;52.362;6.588;2022-12-26T07:44:24;0.00;;;0.00;;
76259;SDS011;65076;52.362;6.588;2022-12-26T07:46:56;0.00;;;0.00;;
76259;SDS011;65076;52.362;6.588;2022-12-26T07:49:25;0.85;;;0.85;;
76259;SDS011;65076;52.362;6.588;2022-12-26T07:51:53;0.00;;;0.00;;
76259;SDS011;65076;52.362;6.588;2022-12-26T07:54:21;0.65;;;0.55;;
76259;SDS011;65076;52.362;6.588;2022-12-26T07:56:49;0.00;;;0.00;;
76259;SDS011;65076;52.362;6.588;2022-12-26T07:59:16;0.00;;;0.00;;
76259;SDS011;65076;52.362;6.588;2022-12-26T08:01:44;0.00;;;0.00;;
76259;SDS011;65076;52.362;6.588;2022-12-26T08:04:14;0.00;;;0.00;;
76259;SDS011;65076;52.362;6.588;2022-12-26T08:06:42;0.00;;;0.00;;
76259;SDS011;65076;52.362;6.588;2022-12-26T08:09:12;0.00;;;0.00;;
76259;SDS011;65076;52.362;6.588;2022-12-26T08:11:42;0.00;;;0.00;;
76259;SDS011;65076;52.362;6.588;2022-12-26T08:14:11;0.00;;;0.00;;
76259;SDS011;65076;52.362;6.588;2022-12-26T08:16:41;0.00;;;0.00;;
76259;SDS011;65076;52.362;6.588;2022-12-26T08:19:19;0.00;;;0.00;;
76259;SDS011;65076;52.362;6.588;2022-12-26T08:21:47;0.00;;;0.00;;
76259;SDS011;65076;52.362;6.588;2022-12-26T08:24:15;0.00;;;0.00;;
76259;SDS011;65076;52.362;6.588;2022-12-26T08:26:43;0.10;;;0.10;;
76259;SDS011;65076;52.362;6.588;2022-12-26T08:29:11;0.00;;;0.00;;
76259;SDS011;65076;52.362;6.588;2022-12-26T08:31:39;0.00;;;0.00;;
76259;SDS011;65076;52.362;6.588;2022-12-26T08:34:07;0.00;;;0.00;;
76259;SDS011;65076;52.362;6.588;2022-12-26T08:36:36;0.00;;;0.00;;
76259;SDS011;65076;52.362;6.588;2022-12-26T08:39:04;0.35;;;0.35;;
76259;SDS011;65076;52.362;6.588;2022-12-26T08:41:32;0.00;;;0.00;;
76259;SDS011;65076;52.362;6.588;2022-12-26T08:44:00;0.00;;;0.00;;
76259;SDS011;65076;52.362;6.588;2022-12-26T08:46:48;0.00;;;0.00;;
76259;SDS011;65076;52.362;6.588;2022-12-26T08:49:15;0.00;;;0.00;;
76259;SDS011;65076;52.362;6.588;2022-12-26T08:51:45;0.00;;;0.00;;
76259;SDS011;65076;52.362;6.588;2022-12-26T08:54:13;0.00;;;0.00;;
76259;SDS011;65076;52.362;6.588;2022-12-26T08:56:41;0.00;;;0.00;;
76259;SDS011;65076;52.362;6.588;2022-12-26T08:59:08;0.15;;;0.15;;
76259;SDS011;65076;52.362;6.588;2022-12-26T09:01:36;0.35;;;0.35;;
76259;SDS011;65076;52.362;6.588;2022-12-26T09:04:04;0.20;;;0.20;;
76259;SDS011;65076;52.362;6.588;2022-12-26T09:06:33;0.00;;;0.00;;
76259;SDS011;65076;52.362;6.588;2022-12-26T09:09:05;0.00;;;0.00;;
76259;SDS011;65076;52.362;6.588;2022-12-26T09:11:37;0.00;;;0.00;;
76259;SDS011;65076;52.362;6.588;2022-12-26T09:14:06;0.00;;;0.00;;
76259;SDS011;65076;52.362;6.588;2022-12-26T09:16:37;0.00;;;0.00;;
76259;SDS011;65076;52.362;6.588;2022-12-26T09:19:16;2.53;;;1.35;;
76259;SDS011;65076;52.362;6.588;2022-12-26T09:21:45;0.00;;;0.00;;
76259;SDS011;65076;52.362;6.588;2022-12-26T09:24:36;0.00;;;0.00;;
76259;SDS011;65076;52.362;6.588;2022-12-26T09:27:04;0.00;;;0.00;;
76259;SDS011;65076;52.362;6.588;2022-12-26T09:29:32;2.33;;;1.60;;
76259;SDS011;65076;52.362;6.588;2022-12-26T09:32:00;5.47;;;2.17;;
76259;SDS011;65076;52.362;6.588;2022-12-26T09:34:28;2.90;;;1.80;;
76259;SDS011;65076;52.362;6.588;2022-12-26T09:39:50;4.93;;;1.52;;
76259;SDS011;65076;52.362;6.588;2022-12-26T09:42:22;6.20;;;2.33;;
76259;SDS011;65076;52.362;6.588;2022-12-26T09:48:18;3.20;;;1.92;;
76259;SDS011;65076;52.362;6.588;2022-12-26T09:50:57;3.28;;;1.27;;
76259;SDS011;65076;52.362;6.588;2022-12-26T09:53:27;3.40;;;1.58;;
76259;SDS011;65076;52.362;6.588;2022-12-26T09:56:02;4.63;;;1.60;;
76259;SDS011;65076;52.362;6.588;2022-12-26T09:58:54;2.60;;;1.25;;
76259;SDS011;65076;52.362;6.588;2022-12-26T10:01:27;3.47;;;1.52;;
76259;SDS011;65076;52.362;6.588;2022-12-26T10:04:03;6.38;;;1.60;;
76259;SDS011;65076;52.362;6.588;2022-12-26T10:06:56;1.63;;;1.20;;
76259;SDS011;65076;52.362;6.588;2022-12-26T10:09:47;6.15;;;2.80;;
76259;SDS011;65076;52.362;6.588;2022-12-26T10:12:31;5.00;;;2.50;;
76259;SDS011;65076;52.362;6.588;2022-12-26T10:15:17;5.75;;;2.33;;
76259;SDS011;65076;52.362;6.588;2022-12-26T10:18:00;3.95;;;2.13;;
76259;SDS011;65076;52.362;6.588;2022-12-26T10:20:45;3.55;;;2.47;;
76259;SDS011;65076;52.362;6.588;2022-12-26T10:23:35;3.55;;;2.97;;
76259;SDS011;65076;52.362;6.588;2022-12-26T10:26:08;2.35;;;1.30;;
76259;SDS011;65076;52.362;6.588;2022-12-26T10:28:46;3.00;;;1.38;;
76259;SDS011;65076;52.362;6.588;2022-12-26T10:31:24;1.67;;;1.10;;
76259;SDS011;65076;52.362;6.588;2022-12-26T10:34:03;4.95;;;1.75;;
76259;SDS011;65076;52.362;6.588;2022-12-26T10:36:43;3.28;;;1.38;;
76259;SDS011;65076;52.362;6.588;2022-12-26T10:39:17;2.55;;;1.60;;
76259;SDS011;65076;52.362;6.588;2022-12-26T10:41:53;2.22;;;1.33;;
76259;SDS011;65076;52.362;6.588;2022-12-26T10:44:30;5.45;;;1.77;;
76259;SDS011;65076;52.362;6.588;2022-12-26T10:47:07;1.95;;;1.17;;
76259;SDS011;65076;52.362;6.588;2022-12-26T10:49:52;5.47;;;1.52;;
76259;SDS011;65076;52.362;6.588;2022-12-26T10:52:26;8.93;;;2.10;;
76259;SDS011;65076;52.362;6.588;2022-12-26T10:54:59;7.72;;;2.45;;
76259;SDS011;65076;52.362;6.588;2022-12-26T10:57:49;6.75;;;1.83;;
76259;SDS011;65076;52.362;6.588;2022-12-26T11:00:21;10.75;;;1.27;;
76259;SDS011;65076;52.362;6.588;2022-12-26T11:03:03;5.05;;;1.30;;
76259;SDS011;65076;52.362;6.588;2022-12-26T11:05:34;5.03;;;0.90;;
76259;SDS011;65076;52.362;6.588;2022-12-26T11:08:27;9.27;;;2.03;;
76259;SDS011;65076;52.362;6.588;2022-12-26T11:11:11;2.25;;;0.77;;
76259;SDS011;65076;52.362;6.588;2022-12-26T11:13:48;4.90;;;0.95;;
76259;SDS011;65076;52.362;6.588;2022-12-26T11:16:30;4.15;;;0.90;;
76259;SDS011;65076;52.362;6.588;2022-12-26T11:19:03;5.47;;;0.93;;
76259;SDS011;65076;52.362;6.588;2022-12-26T11:21:32;2.95;;;0.77;;
76259;SDS011;65076;52.362;6.588;2022-12-26T11:24:11;6.65;;;1.20;;
76259;SDS011;65076;52.362;6.588;2022-12-26T11:26:44;4.47;;;0.88;;
76259;SDS011;65076;52.362;6.588;2022-12-26T11:29:14;7.10;;;0.80;;
76259;SDS011;65076;52.362;6.588;2022-12-26T11:31:51;5.78;;;0.80;;
76259;SDS011;65076;52.362;6.588;2022-12-26T11:34:26;4.22;;;0.90;;
76259;SDS011;65076;52.362;6.588;2022-12-26T11:37:00;7.95;;;1.33;;
76259;SDS011;65076;52.362;6.588;2022-12-26T11:39:33;3.08;;;0.70;;
76259;SDS011;65076;52.362;6.588;2022-12-26T11:42:08;5.88;;;1.15;;
76259;SDS011;65076;52.362;6.588;2022-12-26T11:44:39;5.00;;;0.55;;
76259;SDS011;65076;52.362;6.588;2022-12-26T11:47:13;6.43;;;0.80;;
76259;SDS011;65076;52.362;6.588;2022-12-26T11:49:52;1.20;;;0.32;;
76259;SDS011;65076;52.362;6.588;2022-12-26T11:52:32;3.50;;;1.05;;
76259;SDS011;65076;52.362;6.588;2022-12-26T11:57:55;4.35;;;0.80;;
76259;SDS011;65076;52.362;6.588;2022-12-26T12:00:25;7.70;;;0.75;;
76259;SDS011;65076;52.362;6.588;2022-12-26T12:02:57;2.75;;;1.05;;
76259;SDS011;65076;52.362;6.588;2022-12-26T12:05:34;4.55;;;0.80;;
76259;SDS011;65076;52.362;6.588;2022-12-26T12:08:19;8.80;;;1.35;;
76259;SDS011;65076;52.362;6.588;2022-12-26T12:13:54;5.57;;;1.20;;
76259;SDS011;65076;52.362;6.588;2022-12-26T12:16:54;5.60;;;0.60;;
76259;SDS011;65076;52.362;6.588;2022-12-26T12:19:44;5.43;;;0.90;;
76259;SDS011;65076;52.362;6.588;2022-12-26T12:22:35;4.95;;;0.70;;
76259;SDS011;65076;52.362;6.588;2022-12-26T12:25:34;5.35;;;0.82;;
76259;SDS011;65076;52.362;6.588;2022-12-26T12:28:20;2.50;;;0.75;;
76259;SDS011;65076;52.362;6.588;2022-12-26T12:31:13;4.10;;;0.88;;
76259;SDS011;65076;52.362;6.588;2022-12-26T12:33:56;3.03;;;0.52;;
76259;SDS011;65076;52.362;6.588;2022-12-26T12:36:44;2.35;;;0.43;;
76259;SDS011;65076;52.362;6.588;2022-12-26T12:39:32;2.35;;;0.45;;
76259;SDS011;65076;52.362;6.588;2022-12-26T12:42:25;4.75;;;1.00;;
76259;SDS011;65076;52.362;6.588;2022-12-26T12:48:02;3.22;;;0.70;;
76259;SDS011;65076;52.362;6.588;2022-12-26T12:50:54;1.85;;;0.73;;
76259;SDS011;65076;52.362;6.588;2022-12-26T12:53:44;5.40;;;0.82;;
76259;SDS011;65076;52.362;6.588;2022-12-26T12:56:32;1.92;;;0.50;;
76259;SDS011;65076;52.362;6.588;2022-12-26T12:59:13;3.17;;;0.63;;
76259;SDS011;65076;52.362;6.588;2022-12-26T13:01:56;4.43;;;0.95;;
76259;SDS011;65076;52.362;6.588;2022-12-26T13:04:37;3.30;;;0.85;;
76259;SDS011;65076;52.362;6.588;2022-12-26T13:07:12;6.13;;;0.50;;
76259;SDS011;65076;52.362;6.588;2022-12-26T13:09:50;3.75;;;0.80;;
76259;SDS011;65076;52.362;6.588;2022-12-26T13:12:26;5.85;;;0.90;;
76259;SDS011;65076;52.362;6.588;2022-12-26T13:15:01;6.22;;;0.98;;
76259;SDS011;65076;52.362;6.588;2022-12-26T13:17:36;3.92;;;0.63;;
76259;SDS011;65076;52.362;6.588;2022-12-26T13:20:15;5.90;;;0.80;;
76259;SDS011;65076;52.362;6.588;2022-12-26T13:22:52;2.85;;;0.77;;
76259;SDS011;65076;52.362;6.588;2022-12-26T13:25:47;6.10;;;0.73;;
76259;SDS011;65076;52.362;6.588;2022-12-26T13:28:31;2.72;;;0.70;;
76259;SDS011;65076;52.362;6.588;2022-12-26T13:31:09;4.07;;;0.65;;
76259;SDS011;65076;52.362;6.588;2022-12-26T13:33:40;4.55;;;1.00;;
76259;SDS011;65076;52.362;6.588;2022-12-26T13:51:55;3.78;;;0.73;;
76259;SDS011;65076;52.362;6.588;2022-12-26T13:54:26;4.82;;;1.00;;
76259;SDS011;65076;52.362;6.588;2022-12-26T13:57:10;3.13;;;0.68;;
76259;SDS011;65076;52.362;6.588;2022-12-26T14:00:12;1.73;;;0.43;;
76259;SDS011;65076;52.362;6.588;2022-12-26T14:03:03;6.57;;;0.95;;
76259;SDS011;65076;52.362;6.588;2022-12-26T14:06:28;3.10;;;0.70;;
76259;SDS011;65076;52.362;6.588;2022-12-26T14:09:34;5.18;;;0.88;;
76259;SDS011;65076;52.362;6.588;2022-12-26T14:12:25;3.22;;;0.63;;
76259;SDS011;65076;52.362;6.588;2022-12-26T14:15:20;4.43;;;0.80;;
76259;SDS011;65076;52.362;6.588;2022-12-26T14:18:01;3.88;;;1.10;;
76259;SDS011;65076;52.362;6.588;2022-12-26T14:20:48;5.20;;;1.27;;
76259;SDS011;65076;52.362;6.588;2022-12-26T14:23:39;4.82;;;0.70;;
76259;SDS011;65076;52.362;6.588;2022-12-26T14:26:21;3.90;;;1.02;;
76259;SDS011;65076;52.362;6.588;2022-12-26T14:29:10;6.18;;;1.00;;
76259;SDS011;65076;52.362;6.588;2022-12-26T14:31:58;4.03;;;0.52;;
76259;SDS011;65076;52.362;6.588;2022-12-26T14:34:59;3.45;;;0.75;;
76259;SDS011;65076;52.362;6.588;2022-12-26T14:37:41;5.60;;;1.17;;
76259;SDS011;65076;52.362;6.588;2022-12-26T14:40:26;6.32;;;0.95;;
76259;SDS011;65076;52.362;6.588;2022-12-26T14:43:04;5.15;;;1.00;;
76259;SDS011;65076;52.362;6.588;2022-12-26T14:45:51;6.93;;;1.25;;
76259;SDS011;65076;52.362;6.588;2022-12-26T15:06:24;8.27;;;1.98;;
76259;SDS011;65076;52.362;6.588;2022-12-26T15:09:27;3.70;;;0.70;;
76259;SDS011;65076;52.362;6.588;2022-12-26T15:15:46;5.63;;;0.90;;
76259;SDS011;65076;52.362;6.588;2022-12-26T15:18:49;6.75;;;1.98;;
76259;SDS011;65076;52.362;6.588;2022-12-26T15:25:24;6.57;;;0.98;;
76259;SDS011;65076;52.362;6.588;2022-12-26T15:28:24;5.65;;;1.38;;
76259;SDS011;65076;52.362;6.588;2022-12-26T15:34:43;6.78;;;1.30;;
76259;SDS011;65076;52.362;6.588;2022-12-26T15:40:31;5.95;;;1.00;;
76259;SDS011;65076;52.362;6.588;2022-12-26T15:43:16;7.22;;;1.15;;
76259;SDS011;65076;52.362;6.588;2022-12-26T15:46:03;6.75;;;1.30;;
76259;SDS011;65076;52.362;6.588;2022-12-26T15:48:51;8.65;;;1.52;;
76259;SDS011;65076;52.362;6.588;2022-12-26T15:51:54;8.15;;;1.35;;
76259;SDS011;65076;52.362;6.588;2022-12-26T15:54:47;6.47;;;1.67;;
76259;SDS011;65076;52.362;6.588;2022-12-26T15:57:35;9.38;;;2.08;;
76259;SDS011;65076;52.362;6.588;2022-12-26T16:00:16;5.13;;;1.10;;
76259;SDS011;65076;52.362;6.588;2022-12-26T16:02:57;3.10;;;1.02;;
76259;SDS011;65076;52.362;6.588;2022-12-26T16:05:46;11.77;;;1.95;;
76259;SDS011;65076;52.362;6.588;2022-12-26T16:08:39;5.60;;;1.55;;
76259;SDS011;65076;52.362;6.588;2022-12-26T16:11:21;5.85;;;1.10;;
76259;SDS011;65076;52.362;6.588;2022-12-26T16:13:54;5.20;;;1.50;;
76259;SDS011;65076;52.362;6.588;2022-12-26T16:16:27;7.57;;;1.88;;
76259;SDS011;65076;52.362;6.588;2022-12-26T16:21:48;7.82;;;1.92;;
76259;SDS011;65076;52.362;6.588;2022-12-26T16:24:39;9.57;;;3.33;;
76259;SDS011;65076;52.362;6.588;2022-12-26T16:27:11;7.35;;;1.90;;
76259;SDS011;65076;52.362;6.588;2022-12-26T16:29:44;4.45;;;2.22;;
76259;SDS011;65076;52.362;6.588;2022-12-26T16:32:16;7.97;;;1.48;;
76259;SDS011;65076;52.362;6.588;2022-12-26T16:34:48;8.90;;;3.05;;
76259;SDS011;65076;52.362;6.588;2022-12-26T16:37:17;13.23;;;3.25;;
76259;SDS011;65076;52.362;6.588;2022-12-26T16:40:13;8.82;;;4.32;;
76259;SDS011;65076;52.362;6.588;2022-12-26T16:42:53;11.50;;;3.80;;
76259;SDS011;65076;52.362;6.588;2022-12-26T16:45:25;7.38;;;3.15;;
76259;SDS011;65076;52.362;6.588;2022-12-26T16:47:56;6.18;;;3.80;;
76259;SDS011;65076;52.362;6.588;2022-12-26T16:50:26;8.50;;;5.97;;
76259;SDS011;65076;52.362;6.588;2022-12-26T16:53:02;6.97;;;4.75;;
76259;SDS011;65076;52.362;6.588;2022-12-26T16:55:44;11.57;;;3.65;;
76259;SDS011;65076;52.362;6.588;2022-12-26T16:58:20;7.95;;;1.98;;
76259;SDS011;65076;52.362;6.588;2022-12-26T17:00:58;8.00;;;2.13;;
76259;SDS011;65076;52.362;6.588;2022-12-26T17:03:40;8.70;;;1.65;;
76259;SDS011;65076;52.362;6.588;2022-12-26T17:06:16;6.38;;;1.77;;
76259;SDS011;65076;52.362;6.588;2022-12-26T17:08:53;5.07;;;1.48;;
76259;SDS011;65076;52.362;6.588;2022-12-26T17:11:29;7.28;;;1.90;;